sensor_id;sensor_type;location;lat;lon;timestamp;pressure;altitude;pressure_sealevel;temperature;humidity
13869;BME280;7004;48.206;16.402;2023-04-28T00:02:17;100125.09;;;8.51;63.72
13869;BME280;7004;48.206;16.402;2023-04-28T00:04:43;100129.16;;;8.20;64.05
13869;BME280;7004;48.206;16.402;2023-04-28T00:07:10;100123.06;;;8.37;63.61
13869;BME280;7004;48.206;16.402;2023-04-28T00:09:36;100121.19;;;8.41;64.45
13869;BME280;7004;48.206;16.402;2023-04-28T00:12:02;100119.00;;;8.13;65.42
13869;BME280;7004;48.206;16.402;2023-04-28T00:14:28;100118.25;;;8.09;65.54
13869;BME280;7004;48.206;16.402;2023-04-28T00:16:55;100121.34;;;8.00;65.55
13869;BME280;7004;48.206;16.402;2023-04-28T00:19:23;100120.88;;;8.09;64.48
13869;BME280;7004;48.206;16.402;2023-04-28T00:21:49;100119.00;;;8.13;64.80
13869;BME280;7004;48.206;16.402;2023-04-28T00:24:15;100119.25;;;8.25;64.37
13869;BME280;7004;48.206;16.402;2023-04-28T00:26:41;100121.41;;;7.98;65.41
13869;BME280;7004;48.206;16.402;2023-04-28T00:29:07;100115.00;;;7.85;66.43
13869;BME280;7004;48.206;16.402;2023-04-28T00:31:33;100113.22;;;7.85;67.26
13869;BME280;7004;48.206;16.402;2023-04-28T00:34:00;100111.50;;;7.65;67.34
13869;BME280;7004;48.206;16.402;2023-04-28T00:36:26;100114.91;;;7.68;67.03
13869;BME280;7004;48.206;16.402;2023-04-28T00:38:57;100116.22;;;7.57;67.06
13869;BME280;7004;48.206;16.402;2023-04-28T00:41:23;100109.44;;;7.72;67.13
13869;BME280;7004;48.206;16.402;2023-04-28T00:43:49;100103.88;;;7.59;67.13
13869;BME280;7004;48.206;16.402;2023-04-28T00:46:23;100107.78;;;7.70;66.89
13869;BME280;7004;48.206;16.402;2023-04-28T00:48:50;100111.94;;;7.36;67.96
13869;BME280;7004;48.206;16.402;2023-04-28T00:51:16;100118.13;;;6.94;69.80
13869;BME280;7004;48.206;16.402;2023-04-28T00:53:43;100107.06;;;7.47;68.54
13869;BME280;7004;48.206;16.402;2023-04-28T00:56:09;100111.13;;;7.54;67.49
13869;BME280;7004;48.206;16.402;2023-04-28T00:58:36;100101.53;;;7.72;66.72
13869;BME280;7004;48.206;16.402;2023-04-28T01:01:05;100104.97;;;7.74;67.40
13869;BME280;7004;48.206;16.402;2023-04-28T01:03:40;100101.16;;;7.42;68.89
13869;BME280;7004;48.206;16.402;2023-04-28T01:06:08;100095.06;;;7.60;68.74
13869;BME280;7004;48.206;16.402;2023-04-28T01:08:36;100094.44;;;7.55;69.76
13869;BME280;7004;48.206;16.402;2023-04-28T01:11:03;100094.38;;;7.36;70.50
13869;BME280;7004;48.206;16.402;2023-04-28T01:13:29;100097.16;;;7.33;72.12
13869;BME280;7004;48.206;16.402;2023-04-28T01:15:55;100094.53;;;7.13;72.59
13869;BME280;7004;48.206;16.402;2023-04-28T01:18:23;100093.81;;;7.09;73.58
13869;BME280;7004;48.206;16.402;2023-04-28T01:20:50;100100.25;;;7.22;73.45
13869;BME280;7004;48.206;16.402;2023-04-28T01:23:16;100098.94;;;7.12;74.04
13869;BME280;7004;48.206;16.402;2023-04-28T01:25:43;100095.47;;;7.12;74.59
13869;BME280;7004;48.206;16.402;2023-04-28T01:28:10;100085.25;;;7.25;74.31
13869;BME280;7004;48.206;16.402;2023-04-28T01:30:36;100087.63;;;6.90;76.14
13869;BME280;7004;48.206;16.402;2023-04-28T01:33:03;100088.28;;;7.15;75.15
13869;BME280;7004;48.206;16.402;2023-04-28T01:35:29;100081.44;;;7.32;74.01
13869;BME280;7004;48.206;16.402;2023-04-28T01:37:56;100077.19;;;7.48;73.33
13869;BME280;7004;48.206;16.402;2023-04-28T01:40:22;100073.44;;;7.54;72.97
13869;BME280;7004;48.206;16.402;2023-04-28T01:42:49;100072.34;;;7.39;73.00
13869;BME280;7004;48.206;16.402;2023-04-28T01:45:15;100077.19;;;7.29;74.32
13869;BME280;7004;48.206;16.402;2023-04-28T01:47:44;100069.22;;;7.31;73.55
13869;BME280;7004;48.206;16.402;2023-04-28T01:50:10;100070.06;;;7.31;73.41
13869;BME280;7004;48.206;16.402;2023-04-28T01:52:37;100079.97;;;7.45;72.97
13869;BME280;7004;48.206;16.402;2023-04-28T01:55:03;100070.66;;;7.17;73.32
13869;BME280;7004;48.206;16.402;2023-04-28T01:57:30;100073.94;;;7.22;73.35
13869;BME280;7004;48.206;16.402;2023-04-28T01:59:56;100082.94;;;7.37;72.67
13869;BME280;7004;48.206;16.402;2023-04-28T02:02:24;100080.50;;;7.72;70.60
13869;BME280;7004;48.206;16.402;2023-04-28T02:04:50;100086.59;;;7.54;71.88
13869;BME280;7004;48.206;16.402;2023-04-28T02:07:16;100079.19;;;7.43;72.23
13869;BME280;7004;48.206;16.402;2023-04-28T02:09:43;100076.63;;;7.21;73.45
13869;BME280;7004;48.206;16.402;2023-04-28T02:12:09;100081.53;;;7.49;73.03
13869;BME280;7004;48.206;16.402;2023-04-28T02:14:36;100077.53;;;7.21;73.66
13869;BME280;7004;48.206;16.402;2023-04-28T02:17:02;100080.19;;;7.20;73.94
13869;BME280;7004;48.206;16.402;2023-04-28T02:19:30;100080.53;;;7.33;73.23
13869;BME280;7004;48.206;16.402;2023-04-28T02:21:58;100073.63;;;7.10;73.96
13869;BME280;7004;48.206;16.402;2023-04-28T02:24:25;100079.81;;;7.09;73.88
13869;BME280;7004;48.206;16.402;2023-04-28T02:26:51;100071.59;;;7.16;73.36
13869;BME280;7004;48.206;16.402;2023-04-28T02:29:17;100072.44;;;7.17;73.19
13869;BME280;7004;48.206;16.402;2023-04-28T02:31:43;100068.25;;;7.13;73.09
13869;BME280;7004;48.206;16.402;2023-04-28T02:34:09;100079.06;;;7.26;71.59
13869;BME280;7004;48.206;16.402;2023-04-28T02:36:35;100077.44;;;7.23;72.42
13869;BME280;7004;48.206;16.402;2023-04-28T02:39:01;100081.59;;;7.08;72.40
13869;BME280;7004;48.206;16.402;2023-04-28T02:41:27;100074.47;;;7.10;72.40
13869;BME280;7004;48.206;16.402;2023-04-28T02:43:55;100079.31;;;7.00;72.86
13869;BME280;7004;48.206;16.402;2023-04-28T02:46:22;100080.28;;;6.98;72.48
13869;BME280;7004;48.206;16.402;2023-04-28T02:48:48;100069.63;;;7.01;72.74
13869;BME280;7004;48.206;16.402;2023-04-28T02:51:14;100071.94;;;7.09;72.04
13869;BME280;7004;48.206;16.402;2023-04-28T02:53:40;100076.88;;;6.96;72.75
13869;BME280;7004;48.206;16.402;2023-04-28T02:56:06;100071.00;;;7.10;72.21
13869;BME280;7004;48.206;16.402;2023-04-28T02:58:32;100064.03;;;7.29;71.70
13869;BME280;7004;48.206;16.402;2023-04-28T03:00:58;100067.81;;;7.03;72.27
13869;BME280;7004;48.206;16.402;2023-04-28T03:03:26;100065.09;;;7.05;72.20
13869;BME280;7004;48.206;16.402;2023-04-28T03:06:02;100060.16;;;7.17;71.40
13869;BME280;7004;48.206;16.402;2023-04-28T03:08:29;100058.66;;;7.12;71.04
13869;BME280;7004;48.206;16.402;2023-04-28T03:10:58;100051.38;;;6.98;71.79
13869;BME280;7004;48.206;16.402;2023-04-28T03:13:25;100045.47;;;6.93;72.30
13869;BME280;7004;48.206;16.402;2023-04-28T03:15:59;100051.56;;;6.93;71.97
13869;BME280;7004;48.206;16.402;2023-04-28T03:18:29;100048.44;;;6.85;71.92
13869;BME280;7004;48.206;16.402;2023-04-28T03:21:01;100047.31;;;6.91;71.91
13869;BME280;7004;48.206;16.402;2023-04-28T03:23:31;100051.72;;;6.90;72.28
13869;BME280;7004;48.206;16.402;2023-04-28T03:25:59;100042.28;;;6.85;72.73
13869;BME280;7004;48.206;16.402;2023-04-28T03:28:27;100035.19;;;6.87;73.23
13869;BME280;7004;48.206;16.402;2023-04-28T03:30:58;100042.19;;;6.88;72.44
13869;BME280;7004;48.206;16.402;2023-04-28T03:33:24;100040.66;;;6.82;72.83
13869;BME280;7004;48.206;16.402;2023-04-28T03:35:51;100044.88;;;6.86;72.81
13869;BME280;7004;48.206;16.402;2023-04-28T03:38:19;100048.66;;;6.99;72.72
13869;BME280;7004;48.206;16.402;2023-04-28T03:40:45;100050.25;;;7.04;72.46
13869;BME280;7004;48.206;16.402;2023-04-28T03:43:12;100053.44;;;7.10;71.92
13869;BME280;7004;48.206;16.402;2023-04-28T03:45:39;100047.75;;;7.00;72.57
13869;BME280;7004;48.206;16.402;2023-04-28T03:48:06;100045.38;;;6.94;72.20
13869;BME280;7004;48.206;16.402;2023-04-28T03:50:32;100047.44;;;6.88;73.09
13869;BME280;7004;48.206;16.402;2023-04-28T03:52:58;100046.19;;;6.96;73.45
13869;BME280;7004;48.206;16.402;2023-04-28T03:55:25;100036.78;;;6.91;74.00
13869;BME280;7004;48.206;16.402;2023-04-28T03:57:52;100042.03;;;6.91;73.91
13869;BME280;7004;48.206;16.402;2023-04-28T04:00:18;100051.81;;;6.87;74.33
13869;BME280;7004;48.206;16.402;2023-04-28T04:02:46;100051.75;;;6.89;74.78
13869;BME280;7004;48.206;16.402;2023-04-28T04:05:12;100050.13;;;6.86;74.23
13869;BME280;7004;48.206;16.402;2023-04-28T04:07:38;100048.00;;;6.94;74.14
13869;BME280;7004;48.206;16.402;2023-04-28T04:10:04;100051.94;;;6.84;74.86
13869;BME280;7004;48.206;16.402;2023-04-28T04:12:31;100049.94;;;6.91;73.86
13869;BME280;7004;48.206;16.402;2023-04-28T04:14:57;100047.81;;;6.99;73.87
13869;BME280;7004;48.206;16.402;2023-04-28T04:17:23;100045.56;;;7.10;73.55
13869;BME280;7004;48.206;16.402;2023-04-28T04:19:49;100049.44;;;7.22;73.39
13869;BME280;7004;48.206;16.402;2023-04-28T04:22:15;100048.34;;;7.07;74.81
13869;BME280;7004;48.206;16.402;2023-04-28T04:24:41;100049.00;;;7.12;74.46
13869;BME280;7004;48.206;16.402;2023-04-28T04:27:08;100056.66;;;7.37;73.15
13869;BME280;7004;48.206;16.402;2023-04-28T04:29:34;100052.22;;;7.19;74.65
13869;BME280;7004;48.206;16.402;2023-04-28T04:32:00;100049.47;;;7.02;75.52
13869;BME280;7004;48.206;16.402;2023-04-28T04:34:26;100043.94;;;7.47;73.57
13869;BME280;7004;48.206;16.402;2023-04-28T04:36:52;100041.88;;;7.54;72.90
13869;BME280;7004;48.206;16.402;2023-04-28T04:39:18;100039.13;;;7.76;72.63
13869;BME280;7004;48.206;16.402;2023-04-28T04:41:44;100038.22;;;7.75;72.65
13869;BME280;7004;48.206;16.402;2023-04-28T04:44:10;100033.97;;;7.73;73.17
13869;BME280;7004;48.206;16.402;2023-04-28T04:46:37;100032.75;;;7.80;72.77
13869;BME280;7004;48.206;16.402;2023-04-28T04:49:03;100029.91;;;7.84;72.82
13869;BME280;7004;48.206;16.402;2023-04-28T04:51:29;100026.88;;;8.11;72.09
13869;BME280;7004;48.206;16.402;2023-04-28T04:53:55;100027.00;;;7.91;72.95
13869;BME280;7004;48.206;16.402;2023-04-28T04:56:21;100027.56;;;7.97;73.06
13869;BME280;7004;48.206;16.402;2023-04-28T04:58:49;100027.38;;;8.19;73.46
13869;BME280;7004;48.206;16.402;2023-04-28T05:01:15;100027.00;;;8.27;73.43
13869;BME280;7004;48.206;16.402;2023-04-28T05:03:41;100021.16;;;8.39;73.22
13869;BME280;7004;48.206;16.402;2023-04-28T05:06:08;100025.97;;;8.66;72.08
13869;BME280;7004;48.206;16.402;2023-04-28T05:08:34;100019.69;;;8.68;71.80
13869;BME280;7004;48.206;16.402;2023-04-28T05:11:00;100026.41;;;8.74;70.88
13869;BME280;7004;48.206;16.402;2023-04-28T05:13:26;100020.63;;;8.85;70.15
13869;BME280;7004;48.206;16.402;2023-04-28T05:15:52;100022.91;;;9.08;69.62
13869;BME280;7004;48.206;16.402;2023-04-28T05:18:19;100024.41;;;9.30;69.77
13869;BME280;7004;48.206;16.402;2023-04-28T05:20:45;100022.34;;;9.19;70.00
13869;BME280;7004;48.206;16.402;2023-04-28T05:23:11;100021.63;;;9.15;70.98
13869;BME280;7004;48.206;16.402;2023-04-28T05:25:37;100021.25;;;9.39;70.51
13869;BME280;7004;48.206;16.402;2023-04-28T05:28:04;100020.50;;;9.21;71.07
13869;BME280;7004;48.206;16.402;2023-04-28T05:30:32;100021.13;;;9.42;66.39
13869;BME280;7004;48.206;16.402;2023-04-28T05:32:59;100021.19;;;9.40;61.26
13869;BME280;7004;48.206;16.402;2023-04-28T05:35:25;100020.72;;;9.81;61.61
13869;BME280;7004;48.206;16.402;2023-04-28T05:37:52;100010.41;;;9.61;64.25
13869;BME280;7004;48.206;16.402;2023-04-28T05:40:18;100013.91;;;9.77;63.73
13869;BME280;7004;48.206;16.402;2023-04-28T05:42:44;100019.03;;;9.96;62.45
13869;BME280;7004;48.206;16.402;2023-04-28T05:45:11;100005.91;;;9.95;63.82
13869;BME280;7004;48.206;16.402;2023-04-28T05:47:37;100002.72;;;10.20;62.84
13869;BME280;7004;48.206;16.402;2023-04-28T05:50:03;100006.69;;;10.27;62.41
13869;BME280;7004;48.206;16.402;2023-04-28T05:52:29;100009.78;;;10.19;62.22
13869;BME280;7004;48.206;16.402;2023-04-28T05:54:56;100008.78;;;10.38;61.99
13869;BME280;7004;48.206;16.402;2023-04-28T05:57:22;100004.03;;;10.73;61.37
13869;BME280;7004;48.206;16.402;2023-04-28T05:59:48;100007.50;;;10.59;62.61
13869;BME280;7004;48.206;16.402;2023-04-28T06:02:15;100010.41;;;10.99;59.51
13869;BME280;7004;48.206;16.402;2023-04-28T06:04:41;100009.50;;;10.70;57.14
13869;BME280;7004;48.206;16.402;2023-04-28T06:07:09;100012.78;;;11.04;56.05
13869;BME280;7004;48.206;16.402;2023-04-28T06:09:35;100009.94;;;10.92;54.55
13869;BME280;7004;48.206;16.402;2023-04-28T06:12:02;100011.25;;;11.28;53.35
13869;BME280;7004;48.206;16.402;2023-04-28T06:14:29;100007.47;;;11.04;53.45
13869;BME280;7004;48.206;16.402;2023-04-28T06:16:55;100009.16;;;10.90;54.46
13869;BME280;7004;48.206;16.402;2023-04-28T06:19:21;99998.78;;;11.30;53.56
13869;BME280;7004;48.206;16.402;2023-04-28T06:21:48;100001.19;;;11.21;52.79
13869;BME280;7004;48.206;16.402;2023-04-28T06:24:17;99991.91;;;11.13;52.69
13869;BME280;7004;48.206;16.402;2023-04-28T06:26:43;99993.09;;;11.51;52.39
13869;BME280;7004;48.206;16.402;2023-04-28T06:29:10;99989.84;;;11.74;52.00
13869;BME280;7004;48.206;16.402;2023-04-28T06:31:36;99995.94;;;11.48;51.56
13869;BME280;7004;48.206;16.402;2023-04-28T06:34:02;99998.34;;;11.94;51.12
13869;BME280;7004;48.206;16.402;2023-04-28T06:36:28;99995.25;;;11.73;51.26
13869;BME280;7004;48.206;16.402;2023-04-28T06:38:54;100001.69;;;12.10;50.55
13869;BME280;7004;48.206;16.402;2023-04-28T06:41:20;100000.31;;;12.44;49.36
13869;BME280;7004;48.206;16.402;2023-04-28T06:43:46;99995.41;;;11.84;50.61
13869;BME280;7004;48.206;16.402;2023-04-28T06:46:13;99989.59;;;12.33;49.87
13869;BME280;7004;48.206;16.402;2023-04-28T06:48:39;99980.66;;;13.00;48.60
13869;BME280;7004;48.206;16.402;2023-04-28T06:51:05;99970.03;;;12.74;48.80
13869;BME280;7004;48.206;16.402;2023-04-28T06:53:31;99973.25;;;12.39;49.62
13869;BME280;7004;48.206;16.402;2023-04-28T06:55:58;99961.91;;;12.50;49.98
13869;BME280;7004;48.206;16.402;2023-04-28T06:58:25;99960.34;;;12.60;49.43
13869;BME280;7004;48.206;16.402;2023-04-28T07:00:51;99959.41;;;12.49;50.21
13869;BME280;7004;48.206;16.402;2023-04-28T07:03:18;99956.06;;;12.19;50.02
13869;BME280;7004;48.206;16.402;2023-04-28T07:05:44;99960.13;;;12.11;50.59
13869;BME280;7004;48.206;16.402;2023-04-28T07:08:11;99955.72;;;12.24;50.42
13869;BME280;7004;48.206;16.402;2023-04-28T07:10:37;99951.34;;;13.01;49.00
13869;BME280;7004;48.206;16.402;2023-04-28T07:13:03;99950.19;;;12.80;49.63
13869;BME280;7004;48.206;16.402;2023-04-28T07:15:29;99942.31;;;13.17;48.70
13869;BME280;7004;48.206;16.402;2023-04-28T07:17:56;99937.28;;;13.74;47.97
13869;BME280;7004;48.206;16.402;2023-04-28T07:20:22;99936.91;;;13.18;49.55
13869;BME280;7004;48.206;16.402;2023-04-28T07:22:48;99939.09;;;13.50;48.20
13869;BME280;7004;48.206;16.402;2023-04-28T07:25:14;99929.13;;;13.41;48.80
13869;BME280;7004;48.206;16.402;2023-04-28T07:27:41;99938.81;;;13.66;48.16
13869;BME280;7004;48.206;16.402;2023-04-28T07:30:07;99939.53;;;13.81;46.86
13869;BME280;7004;48.206;16.402;2023-04-28T07:32:33;99932.00;;;14.34;46.23
13869;BME280;7004;48.206;16.402;2023-04-28T07:35:00;99933.34;;;14.75;45.16
13869;BME280;7004;48.206;16.402;2023-04-28T07:37:27;99927.50;;;14.58;45.21
13869;BME280;7004;48.206;16.402;2023-04-28T07:39:54;99927.88;;;15.55;43.66
13869;BME280;7004;48.206;16.402;2023-04-28T07:42:20;99921.91;;;15.63;43.43
13869;BME280;7004;48.206;16.402;2023-04-28T07:44:47;99920.56;;;16.12;42.10
13869;BME280;7004;48.206;16.402;2023-04-28T07:47:13;99909.44;;;16.70;42.04
13869;BME280;7004;48.206;16.402;2023-04-28T07:49:39;99904.50;;;16.44;41.74
13869;BME280;7004;48.206;16.402;2023-04-28T07:52:05;99908.28;;;16.42;41.75
13869;BME280;7004;48.206;16.402;2023-04-28T07:54:31;99923.13;;;16.34;42.19
13869;BME280;7004;48.206;16.402;2023-04-28T07:56:58;99909.19;;;16.10;41.10
13869;BME280;7004;48.206;16.402;2023-04-28T07:59:24;99921.91;;;15.74;41.95
13869;BME280;7004;48.206;16.402;2023-04-28T08:01:50;99921.50;;;16.64;40.48
13869;BME280;7004;48.206;16.402;2023-04-28T08:04:16;99926.03;;;15.78;42.24
13869;BME280;7004;48.206;16.402;2023-04-28T08:06:42;99911.56;;;16.45;41.36
13869;BME280;7004;48.206;16.402;2023-04-28T08:09:08;99923.84;;;16.57;41.02
13869;BME280;7004;48.206;16.402;2023-04-28T08:11:34;99916.16;;;16.43;41.39
13869;BME280;7004;48.206;16.402;2023-04-28T08:14:01;99923.19;;;16.23;42.16
13869;BME280;7004;48.206;16.402;2023-04-28T08:16:29;99930.63;;;15.54;43.37
13869;BME280;7004;48.206;16.402;2023-04-28T08:18:56;99917.94;;;17.06;40.76
13869;BME280;7004;48.206;16.402;2023-04-28T08:21:23;99908.88;;;17.28;40.31
13869;BME280;7004;48.206;16.402;2023-04-28T08:23:49;99900.53;;;17.52;39.60
13869;BME280;7004;48.206;16.402;2023-04-28T08:26:16;99893.13;;;17.24;39.63
13869;BME280;7004;48.206;16.402;2023-04-28T08:28:42;99889.47;;;17.16;40.34
13869;BME280;7004;48.206;16.402;2023-04-28T08:31:09;99887.13;;;16.71;40.37
13869;BME280;7004;48.206;16.402;2023-04-28T08:33:35;99878.16;;;17.02;39.30
13869;BME280;7004;48.206;16.402;2023-04-28T08:36:01;99877.56;;;16.99;39.69
13869;BME280;7004;48.206;16.402;2023-04-28T08:38:28;99861.63;;;17.18;39.08
13869;BME280;7004;48.206;16.402;2023-04-28T08:40:54;99864.53;;;16.75;40.19
13869;BME280;7004;48.206;16.402;2023-04-28T08:43:21;99864.22;;;17.39;39.55
13869;BME280;7004;48.206;16.402;2023-04-28T08:45:47;99878.81;;;17.35;39.34
13869;BME280;7004;48.206;16.402;2023-04-28T08:48:19;99867.88;;;16.98;39.64
13869;BME280;7004;48.206;16.402;2023-04-28T08:50:55;99857.31;;;17.37;39.24
13869;BME280;7004;48.206;16.402;2023-04-28T08:53:24;99860.44;;;17.01;38.96
13869;BME280;7004;48.206;16.402;2023-04-28T08:55:55;99842.19;;;18.62;37.70
13869;BME280;7004;48.206;16.402;2023-04-28T08:58:23;99838.34;;;18.18;37.99
13869;BME280;7004;48.206;16.402;2023-04-28T09:00:52;99847.41;;;18.64;37.27
13869;BME280;7004;48.206;16.402;2023-04-28T09:03:18;99852.25;;;16.84;39.84
13869;BME280;7004;48.206;16.402;2023-04-28T09:05:45;99843.53;;;17.32;39.06
13869;BME280;7004;48.206;16.402;2023-04-28T09:08:12;99844.84;;;17.57;38.79
13869;BME280;7004;48.206;16.402;2023-04-28T09:10:38;99841.88;;;18.28;37.97
13869;BME280;7004;48.206;16.402;2023-04-28T09:13:04;99841.03;;;17.59;38.41
13869;BME280;7004;48.206;16.402;2023-04-28T09:15:36;99863.53;;;17.57;39.52
13869;BME280;7004;48.206;16.402;2023-04-28T09:18:04;99849.00;;;17.20;39.64
13869;BME280;7004;48.206;16.402;2023-04-28T09:20:33;99837.53;;;18.07;39.08
13869;BME280;7004;48.206;16.402;2023-04-28T09:23:20;99833.34;;;17.85;38.98
13869;BME280;7004;48.206;16.402;2023-04-28T09:26:03;99832.06;;;17.89;39.22
13869;BME280;7004;48.206;16.402;2023-04-28T09:28:31;99820.94;;;18.14;38.56
13869;BME280;7004;48.206;16.402;2023-04-28T09:30:58;99820.38;;;17.81;38.94
13869;BME280;7004;48.206;16.402;2023-04-28T09:33:24;99825.59;;;17.82;39.90
13869;BME280;7004;48.206;16.402;2023-04-28T09:35:51;99815.81;;;18.30;38.86
13869;BME280;7004;48.206;16.402;2023-04-28T09:38:20;99809.56;;;18.39;38.81
13869;BME280;7004;48.206;16.402;2023-04-28T09:41:02;99804.81;;;18.80;38.68
13869;BME280;7004;48.206;16.402;2023-04-28T09:43:34;99805.59;;;18.90;37.55
13869;BME280;7004;48.206;16.402;2023-04-28T09:46:04;99785.31;;;19.15;37.29
13869;BME280;7004;48.206;16.402;2023-04-28T09:48:36;99780.41;;;18.83;38.09
13869;BME280;7004;48.206;16.402;2023-04-28T09:51:05;99768.88;;;19.28;36.82
13869;BME280;7004;48.206;16.402;2023-04-28T09:53:33;99760.53;;;19.49;36.34
13869;BME280;7004;48.206;16.402;2023-04-28T09:56:02;99774.66;;;18.41;38.63
13869;BME280;7004;48.206;16.402;2023-04-28T09:58:30;99761.41;;;19.94;36.24
13869;BME280;7004;48.206;16.402;2023-04-28T10:01:00;99770.69;;;19.10;36.81
13869;BME280;7004;48.206;16.402;2023-04-28T10:03:28;99752.41;;;19.41;35.86
13869;BME280;7004;48.206;16.402;2023-04-28T10:05:58;99744.81;;;19.36;36.65
13869;BME280;7004;48.206;16.402;2023-04-28T10:08:26;99757.75;;;19.05;37.23
13869;BME280;7004;48.206;16.402;2023-04-28T10:10:53;99733.41;;;19.52;35.89
13869;BME280;7004;48.206;16.402;2023-04-28T10:13:21;99739.47;;;18.91;36.18
13869;BME280;7004;48.206;16.402;2023-04-28T10:15:48;99740.00;;;19.04;36.03
13869;BME280;7004;48.206;16.402;2023-04-28T10:18:15;99757.16;;;18.46;36.80
13869;BME280;7004;48.206;16.402;2023-04-28T10:20:45;99743.53;;;18.67;36.95
13869;BME280;7004;48.206;16.402;2023-04-28T10:23:59;99735.16;;;19.08;37.49
13869;BME280;7004;48.206;16.402;2023-04-28T10:27:02;99733.97;;;19.38;36.28
13869;BME280;7004;48.206;16.402;2023-04-28T10:29:32;99727.66;;;19.47;35.51
13869;BME280;7004;48.206;16.402;2023-04-28T10:32:22;99735.25;;;19.34;35.94
13869;BME280;7004;48.206;16.402;2023-04-28T10:34:51;99726.13;;;19.09;36.22
13869;BME280;7004;48.206;16.402;2023-04-28T10:37:17;99705.06;;;19.32;36.50
13869;BME280;7004;48.206;16.402;2023-04-28T10:40:38;99703.09;;;20.64;34.42
13869;BME280;7004;48.206;16.402;2023-04-28T10:43:10;99695.97;;;19.86;35.55
13869;BME280;7004;48.206;16.402;2023-04-28T10:48:23;99704.09;;;19.15;36.18
13869;BME280;7004;48.206;16.402;2023-04-28T10:56:15;99693.59;;;20.44;35.49
13869;BME280;7004;48.206;16.402;2023-04-28T10:58:53;99691.22;;;20.41;35.01
13869;BME280;7004;48.206;16.402;2023-04-28T11:01:26;99684.09;;;20.23;34.55
13869;BME280;7004;48.206;16.402;2023-04-28T11:04:07;99685.97;;;20.31;34.95
13869;BME280;7004;48.206;16.402;2023-04-28T11:06:45;99683.75;;;19.48;35.84
13869;BME280;7004;48.206;16.402;2023-04-28T11:22:01;99653.41;;;19.92;35.08
13869;BME280;7004;48.206;16.402;2023-04-28T11:24:29;99647.63;;;20.04;35.01
13869;BME280;7004;48.206;16.402;2023-04-28T11:26:57;99645.22;;;20.27;35.17
13869;BME280;7004;48.206;16.402;2023-04-28T11:29:38;99637.59;;;20.15;34.82
13869;BME280;7004;48.206;16.402;2023-04-28T11:32:06;99616.75;;;20.43;34.80
13869;BME280;7004;48.206;16.402;2023-04-28T11:34:34;99620.88;;;20.71;34.87
13869;BME280;7004;48.206;16.402;2023-04-28T11:37:01;99626.56;;;20.60;34.64
13869;BME280;7004;48.206;16.402;2023-04-28T11:39:32;99624.13;;;20.49;34.97
13869;BME280;7004;48.206;16.402;2023-04-28T11:42:01;99616.88;;;20.92;34.33
13869;BME280;7004;48.206;16.402;2023-04-28T11:44:30;99618.22;;;21.21;34.09
13869;BME280;7004;48.206;16.402;2023-04-28T11:46:58;99612.34;;;20.84;34.96
13869;BME280;7004;48.206;16.402;2023-04-28T11:49:27;99599.06;;;21.40;33.62
13869;BME280;7004;48.206;16.402;2023-04-28T11:51:54;99606.63;;;20.95;34.73
13869;BME280;7004;48.206;16.402;2023-04-28T11:54:26;99607.78;;;20.26;35.13
13869;BME280;7004;48.206;16.402;2023-04-28T11:56:55;99610.16;;;20.21;35.19
13869;BME280;7004;48.206;16.402;2023-04-28T11:59:30;99609.13;;;20.22;35.20
13869;BME280;7004;48.206;16.402;2023-04-28T12:02:06;99619.44;;;20.43;35.07
13869;BME280;7004;48.206;16.402;2023-04-28T12:04:35;99617.69;;;19.83;35.49
13869;BME280;7004;48.206;16.402;2023-04-28T12:07:14;99612.84;;;19.95;36.37
13869;BME280;7004;48.206;16.402;2023-04-28T12:10:11;99610.75;;;20.06;35.49
13869;BME280;7004;48.206;16.402;2023-04-28T12:12:38;99614.31;;;19.81;35.98
13869;BME280;7004;48.206;16.402;2023-04-28T12:15:06;99604.50;;;20.40;35.09
13869;BME280;7004;48.206;16.402;2023-04-28T12:17:38;99596.03;;;20.69;35.86
13869;BME280;7004;48.206;16.402;2023-04-28T12:20:10;99618.41;;;20.44;35.54
13869;BME280;7004;48.206;16.402;2023-04-28T12:22:49;99621.56;;;20.31;35.76
13869;BME280;7004;48.206;16.402;2023-04-28T12:25:18;99619.13;;;19.51;36.23
13869;BME280;7004;48.206;16.402;2023-04-28T12:28:05;99624.25;;;19.89;35.84
13869;BME280;7004;48.206;16.402;2023-04-28T12:30:34;99625.69;;;19.57;36.36
13869;BME280;7004;48.206;16.402;2023-04-28T12:33:03;99634.56;;;19.57;36.68
13869;BME280;7004;48.206;16.402;2023-04-28T12:35:29;99639.78;;;19.33;36.88
13869;BME280;7004;48.206;16.402;2023-04-28T12:37:56;99641.25;;;18.91;37.23
13869;BME280;7004;48.206;16.402;2023-04-28T12:40:23;99641.59;;;19.14;37.07
13869;BME280;7004;48.206;16.402;2023-04-28T12:42:49;99635.94;;;19.35;37.35
13869;BME280;7004;48.206;16.402;2023-04-28T12:45:16;99633.84;;;18.58;38.27
13869;BME280;7004;48.206;16.402;2023-04-28T12:47:44;99629.41;;;18.94;37.54
13869;BME280;7004;48.206;16.402;2023-04-28T12:50:10;99627.28;;;19.24;37.45
13869;BME280;7004;48.206;16.402;2023-04-28T12:52:37;99628.78;;;18.54;38.67
13869;BME280;7004;48.206;16.402;2023-04-28T12:55:04;99632.25;;;18.65;38.47
13869;BME280;7004;48.206;16.402;2023-04-28T12:57:30;99631.28;;;18.38;38.50
13869;BME280;7004;48.206;16.402;2023-04-28T12:59:57;99635.31;;;18.24;38.90
13869;BME280;7004;48.206;16.402;2023-04-28T13:02:23;99629.91;;;18.34;38.77
13869;BME280;7004;48.206;16.402;2023-04-28T13:04:49;99623.72;;;18.51;38.49
13869;BME280;7004;48.206;16.402;2023-04-28T13:07:16;99631.31;;;18.56;38.71
13869;BME280;7004;48.206;16.402;2023-04-28T13:09:43;99629.56;;;18.19;39.10
13869;BME280;7004;48.206;16.402;2023-04-28T13:12:09;99631.47;;;17.99;39.50
13869;BME280;7004;48.206;16.402;2023-04-28T13:14:36;99627.88;;;17.81;39.85
13869;BME280;7004;48.206;16.402;2023-04-28T13:17:02;99619.25;;;18.24;39.83
13869;BME280;7004;48.206;16.402;2023-04-28T13:19:30;99622.81;;;17.87;40.13
13869;BME280;7004;48.206;16.402;2023-04-28T13:21:58;99627.16;;;17.79;40.63
13869;BME280;7004;48.206;16.402;2023-04-28T13:24:25;99634.81;;;18.11;40.62
13869;BME280;7004;48.206;16.402;2023-04-28T13:26:51;99628.56;;;17.93;40.29